Time;durP1;ratioP1;P1;durP2;ratioP2;P2;SDS_P1;SDS_P2;PMS_P1;PMS_P2;Temp;Humidity;BMP_temperature;BMP_pressure;BME280_temperature;BME280_humidity;BME280_pressure;Samples;Min_cycle;Max_cycle;Signal;HPM_P1;HPM_P2
2022/01/01 00:01:23;;;;;;;181.95;97.53;;;;;;;9.96;87.98;102356.16;5001648;28;20034;-61
2022/01/01 00:03:48;;;;;;;192.43;99.05;;;;;;;10.02;87.82;102362.28;5006488;28;20045;-61
2022/01/01 00:06:13;;;;;;;180.80;95.40;;;;;;;9.98;87.58;102361.41;4995388;28;20045;-61
2022/01/01 00:08:39;;;;;;;160.88;86.10;;;;;;;10.01;87.68;102361.41;4987423;28;20264;-62
2022/01/01 00:11:04;;;;;;;149.20;76.45;;;;;;;10.06;87.52;102353.47;4987300;28;20073;-61
2022/01/01 00:13:29;;;;;;;141.13;74.93;;;;;;;10.06;87.54;102354.31;4969539;28;20176;-63
2022/01/01 00:15:54;;;;;;;149.32;78.28;;;;;;;10.07;87.68;102352.59;4986392;28;20058;-61
2022/01/01 00:18:20;;;;;;;155.85;81.82;;;;;;;10.09;87.54;102345.56;4987522;28;20121;-61
2022/01/01 00:20:45;;;;;;;155.90;81.18;;;;;;;10.11;87.25;102336.75;4990879;28;20556;-60
2022/01/01 00:23:10;;;;;;;140.50;68.40;;;;;;;10.17;87.62;102345.50;5007068;28;20067;-60
2022/01/01 00:25:36;;;;;;;132.73;71.28;;;;;;;10.23;87.44;102348.06;5003880;28;20108;-61
2022/01/01 00:28:01;;;;;;;162.20;82.65;;;;;;;10.22;87.67;102341.94;4986993;28;20054;-62
2022/01/01 00:30:26;;;;;;;142.82;70.75;;;;;;;10.25;87.65;102333.13;4986942;28;20366;-63
2022/01/01 00:32:52;;;;;;;128.98;64.35;;;;;;;10.26;87.58;102339.28;5004990;28;20546;-60
2022/01/01 00:35:17;;;;;;;170.05;84.03;;;;;;;10.26;87.88;102334.00;5006720;28;20412;-61
2022/01/01 00:37:42;;;;;;;160.60;78.93;;;;;;;10.30;87.44;102338.34;4988882;28;20050;-61
2022/01/01 00:40:08;;;;;;;185.65;91.15;;;;;;;10.29;87.67;102345.38;4986452;28;20030;-61
2022/01/01 00:42:33;;;;;;;171.00;85.72;;;;;;;10.27;87.75;102346.28;4985779;28;20133;-61
2022/01/01 00:44:58;;;;;;;167.32;86.60;;;;;;;10.29;87.55;102342.75;4986793;28;20203;-61
2022/01/01 00:47:24;;;;;;;157.50;75.53;;;;;;;10.23;88.10;102342.78;4985261;28;20027;-60
2022/01/01 00:49:49;;;;;;;147.93;74.78;;;;;;;10.27;87.87;102338.38;4986267;28;20034;-61
2022/01/01 00:52:15;;;;;;;143.95;70.68;;;;;;;10.25;87.88;102338.41;4986818;28;20041;-61
2022/01/01 00:54:41;;;;;;;167.23;81.55;;;;;;;10.22;87.91;102328.78;4987958;28;20062;-61
2022/01/01 00:57:06;;;;;;;168.10;79.45;;;;;;;10.20;87.74;102324.38;4986205;28;20019;-61
2022/01/01 00:59:31;;;;;;;161.68;78.63;;;;;;;10.16;87.93;102338.47;4987764;28;20038;-61
2022/01/01 01:01:58;;;;;;;169.00;82.10;;;;;;;10.07;87.98;102332.41;4985371;28;20050;-60
2022/01/01 01:04:23;;;;;;;177.65;78.15;;;;;;;10.03;88.02;102349.13;4988279;28;20038;-60
2022/01/01 01:06:49;;;;;;;185.27;80.03;;;;;;;9.99;88.53;102358.78;4968381;28;20019;-61
2022/01/01 01:09:14;;;;;;;159.20;69.18;;;;;;;9.98;88.38;102358.78;4986212;28;20033;-61
2022/01/01 01:11:45;;;;;;;175.77;77.20;;;;;;;9.94;88.22;102357.06;4987366;28;20109;-60
2022/01/01 01:14:19;;;;;;;203.23;86.45;;;;;;;9.88;88.78;102368.53;4986339;28;20465;-61
2022/01/01 01:16:44;;;;;;;193.38;79.25;;;;;;;9.90;89.19;102372.00;4986306;28;20041;-61
2022/01/01 01:19:09;;;;;;;170.32;68.25;;;;;;;9.92;89.36;102375.50;4986881;28;20373;-60
2022/01/01 01:21:35;;;;;;;169.02;64.63;;;;;;;9.94;89.11;102367.59;4986729;28;20018;-61
2022/01/01 01:24:01;;;;;;;173.77;62.00;;;;;;;10.01;89.28;102371.94;4984963;28;20037;-61
2022/01/01 01:26:28;;;;;;;162.82;61.45;;;;;;;10.11;89.26;102378.00;4986357;28;20030;-61
2022/01/01 01:28:54;;;;;;;137.88;50.97;;;;;;;10.19;89.16;102377.94;4984948;28;20520;-59
2022/01/01 01:31:20;;;;;;;134.98;51.13;;;;;;;10.26;89.01;102378.81;4986349;28;20054;-60
2022/01/01 01:33:45;;;;;;;106.15;38.28;;;;;;;10.40;88.77;102384.81;4985901;28;20027;-60
2022/01/01 01:36:11;;;;;;;88.90;32.22;;;;;;;10.50;88.51;102375.09;4986526;28;20026;-61
2022/01/01 01:38:37;;;;;;;88.15;29.17;;;;;;;10.57;88.40;102384.69;4985905;28;20030;-61
2022/01/01 01:41:06;;;;;;;70.32;27.08;;;;;;;10.67;88.55;102382.88;5002977;28;20045;-62
2022/01/01 01:43:32;;;;;;;62.05;23.00;;;;;;;10.78;88.21;102372.22;4987396;28;20109;-60
2022/01/01 01:46:03;;;;;;;61.60;22.15;;;;;;;10.84;87.82;102376.56;5004883;28;20452;-61
2022/01/01 01:48:29;;;;;;;70.13;22.55;;;;;;;10.89;87.51;102372.09;5003936;28;20469;-64
2022/01/01 01:50:56;;;;;;;56.78;21.83;;;;;;;10.96;87.39;102378.19;4986580;28;20030;-60
2022/01/01 01:53:21;;;;;;;49.13;18.52;;;;;;;11.01;87.60;102363.16;4967989;28;20053;-63
2022/01/01 01:55:47;;;;;;;54.47;17.60;;;;;;;11.08;86.92;102378.03;4986438;28;20045;-61
2022/01/01 01:58:12;;;;;;;64.10;18.13;;;;;;;11.08;86.87;102372.75;5005703;28;20037;-61
2022/01/01 02:03:11;;;;;;;45.65;14.73;;;;;;;11.12;86.72;102385.03;4985431;28;20502;-62
2022/01/01 02:05:37;;;;;;;49.08;12.63;;;;;;;11.15;86.52;102375.31;4985762;28;20034;-61
2022/01/01 02:08:04;;;;;;;51.15;13.70;;;;;;;11.15;86.47;102372.69;4985650;28;20034;-61
2022/01/01 02:10:31;;;;;;;55.30;13.27;;;;;;;11.12;86.72;102374.50;4968221;28;20042;-61
2022/01/01 02:12:57;;;;;;;54.58;12.43;;;;;;;11.16;86.57;102372.66;4985625;28;20443;-61
2022/01/01 02:15:37;;;;;;;48.33;11.60;;;;;;;11.22;86.40;102369.97;4994237;28;20439;-60
2022/01/01 02:18:02;;;;;;;46.42;10.63;;;;;;;11.26;86.56;102357.63;4987990;28;20030;-62
2022/01/01 02:20:28;;;;;;;43.10;11.90;;;;;;;11.27;86.18;102362.00;5004457;28;20388;-61
2022/01/01 02:22:58;;;;;;;47.30;10.95;;;;;;;11.29;86.51;102357.56;5005606;28;20131;-61
2022/01/01 02:25:23;;;;;;;43.17;11.50;;;;;;;11.30;86.36;102348.78;4977790;28;20727;-60
2022/01/01 02:27:49;;;;;;;34.45;11.63;;;;;;;11.29;86.15;102339.09;4985066;28;20114;-61
2022/01/01 02:30:15;;;;;;;51.45;13.27;;;;;;;11.29;86.21;102341.72;4988790;28;20065;-61
2022/01/01 02:32:41;;;;;;;47.88;12.88;;;;;;;11.37;85.94;102354.81;5004850;28;20034;-62
2022/01/01 02:35:08;;;;;;;44.53;13.25;;;;;;;11.43;86.00;102345.94;5004542;28;20022;-60
2022/01/01 02:37:37;;;;;;;45.65;13.38;;;;;;;11.49;85.63;102353.78;4989780;28;20031;-60
2022/01/01 02:40:03;;;;;;;48.33;14.02;;;;;;;11.50;85.62;102352.91;4985133;28;20355;-61
2022/01/01 02:42:29;;;;;;;39.55;12.68;;;;;;;11.54;85.29;102353.72;4985123;28;20489;-61
2022/01/01 02:44:54;;;;;;;47.80;14.13;;;;;;;11.56;85.27;102363.38;4985383;28;20050;-62
2022/01/01 02:47:20;;;;;;;51.28;15.65;;;;;;;11.55;84.98;102361.63;4967001;28;20031;-61
2022/01/01 02:49:46;;;;;;;46.80;16.20;;;;;;;11.55;85.25;102364.28;4950965;28;20042;-62
2022/01/01 02:52:11;;;;;;;46.92;16.08;;;;;;;11.57;84.91;102364.25;4985523;28;20472;-62
2022/01/01 02:54:37;;;;;;;53.60;16.90;;;;;;;11.57;85.30;102359.84;4967406;28;20069;-59
2022/01/01 02:57:02;;;;;;;45.95;17.45;;;;;;;11.62;84.83;102358.00;5005597;28;20465;-62
2022/01/01 02:59:28;;;;;;;53.92;19.70;;;;;;;11.60;85.17;102364.22;5004494;28;20030;-60
2022/01/01 03:01:53;;;;;;;42.80;19.25;;;;;;;11.63;84.85;102359.75;4986365;28;20046;-61
2022/01/01 03:04:18;;;;;;;48.88;21.05;;;;;;;11.60;84.87;102364.22;4987031;28;20485;-61
2022/01/01 03:06:45;;;;;;;53.47;20.35;;;;;;;11.60;85.26;102358.94;5005054;28;20472;-61
2022/01/01 03:09:11;;;;;;;47.15;20.77;;;;;;;11.66;84.86;102350.94;4991403;28;20022;-64
2022/01/01 03:11:36;;;;;;;51.88;22.15;;;;;;;11.64;84.71;102352.72;4994956;28;20385;-61
2022/01/01 03:14:02;;;;;;;53.45;20.05;;;;;;;11.69;84.86;102342.97;4988814;28;20027;-61
2022/01/01 03:16:27;;;;;;;47.88;17.80;;;;;;;11.71;84.77;102348.22;4987699;28;20494;-62
2022/01/01 03:18:53;;;;;;;57.67;19.70;;;;;;;11.70;84.46;102343.81;4989206;28;20049;-60
2022/01/01 03:21:18;;;;;;;53.67;19.42;;;;;;;11.69;84.76;102342.09;4988381;28;20037;-61
2022/01/01 03:23:43;;;;;;;48.83;18.63;;;;;;;11.70;84.46;102346.47;4989543;28;20027;-61
2022/01/01 03:26:09;;;;;;;55.72;19.75;;;;;;;11.70;84.60;102341.19;4988479;28;20034;-60
2022/01/01 03:28:34;;;;;;;60.95;22.00;;;;;;;11.65;84.83;102335.97;4988879;28;20181;-61
2022/01/01 03:30:59;;;;;;;47.65;18.45;;;;;;;11.70;84.51;102331.50;4987036;28;20485;-60
2022/01/01 03:33:24;;;;;;;42.90;15.50;;;;;;;11.71;84.28;102332.38;4989263;28;20544;-61
2022/01/01 03:35:50;;;;;;;50.15;19.23;;;;;;;11.68;84.64;102335.06;4987437;28;20022;-62
2022/01/01 03:38:16;;;;;;;45.83;17.63;;;;;;;11.65;84.48;102332.47;4989367;28;20027;-60
2022/01/01 03:40:42;;;;;;;36.40;15.32;;;;;;;11.66;84.57;102326.28;4988666;28;20129;-62
2022/01/01 03:43:07;;;;;;;49.80;16.67;;;;;;;11.65;84.59;102324.56;4988521;28;20113;-61
2022/01/01 03:45:33;;;;;;;51.67;17.02;;;;;;;11.67;84.58;102333.31;4986198;28;20030;-63
2022/01/01 03:47:58;;;;;;;42.92;15.70;;;;;;;11.65;84.68;102332.47;4988901;28;20026;-61
2022/01/01 03:50:23;;;;;;;40.15;17.25;;;;;;;11.69;84.19;102342.97;4970444;28;20031;-61
2022/01/01 03:52:49;;;;;;;41.17;16.75;;;;;;;11.68;84.42;102330.66;4996946;28;20023;-60
2022/01/01 03:55:14;;;;;;;42.55;16.45;;;;;;;11.59;84.45;102336.06;4988647;28;20090;-62
2022/01/01 03:57:40;;;;;;;58.10;19.08;;;;;;;11.48;84.64;102333.56;4987945;28;20022;-60
2022/01/01 04:00:08;;;;;;;45.42;18.60;;;;;;;11.31;84.71;102342.59;4987571;28;20054;-61
2022/01/01 04:02:33;;;;;;;47.10;16.20;;;;;;;11.19;85.06;102342.72;4994318;28;20080;-61
2022/01/01 04:04:59;;;;;;;47.67;16.45;;;;;;;11.10;85.91;102343.72;4988911;28;20054;-61
2022/01/01 04:07:24;;;;;;;41.95;17.67;;;;;;;11.06;86.19;102348.19;4989028;28;20116;-62
2022/01/01 04:09:50;;;;;;;53.55;18.00;;;;;;;10.99;86.00;102346.50;4988361;28;20392;-63
2022/01/01 04:12:15;;;;;;;47.40;16.92;;;;;;;11.00;86.25;102348.25;4989028;28;20054;-61
2022/01/01 04:14:42;;;;;;;47.38;18.35;;;;;;;11.01;86.25;102349.13;4988439;28;20037;-61
2022/01/01 04:17:07;;;;;;;43.55;16.55;;;;;;;11.01;86.39;102355.25;4991712;28;20471;-61
2022/01/01 04:19:39;;;;;;;47.65;15.73;;;;;;;11.10;85.69;102347.25;5008517;28;20018;-63
2022/01/01 04:22:08;;;;;;;53.40;22.00;;;;;;;11.17;85.35;102337.47;5002068;28;20126;-60
2022/01/01 04:24:34;;;;;;;52.40;19.00;;;;;;;11.10;85.46;102334.06;4988701;28;20122;-61
2022/01/01 04:27:00;;;;;;;36.25;14.60;;;;;;;11.19;85.30;102333.06;4988666;28;20037;-61
2022/01/01 04:29:25;;;;;;;37.40;13.45;;;;;;;11.17;85.12;102341.91;5008051;28;20030;-61
2022/01/01 04:31:51;;;;;;;36.72;14.93;;;;;;;11.22;85.14;102358.53;5005609;28;20088;-60
2022/01/01 04:34:16;;;;;;;35.97;13.50;;;;;;;11.25;84.66;102348.81;5008104;28;20463;-61
2022/01/01 04:36:49;;;;;;;30.83;13.25;;;;;;;11.29;84.55;102349.63;5007446;28;20022;-61
2022/01/01 04:39:14;;;;;;;34.20;13.52;;;;;;;11.30;84.73;102355.81;4988882;28;20023;-61
2022/01/01 04:41:41;;;;;;;33.47;13.13;;;;;;;11.29;84.38;102357.56;4987609;28;20020;-60
2022/01/01 04:44:06;;;;;;;30.98;12.80;;;;;;;11.31;84.72;102368.97;4987270;28;20041;-60
2022/01/01 04:46:32;;;;;;;35.70;11.68;;;;;;;11.32;84.70;102368.06;4986722;28;20042;-60
2022/01/01 04:48:57;;;;;;;31.40;13.15;;;;;;;11.37;84.28;102374.19;4986701;28;20038;-62
2022/01/01 04:51:22;;;;;;;33.25;12.60;;;;;;;11.37;84.52;102368.91;4987568;28;20030;-62
2022/01/01 04:53:49;;;;;;;33.17;13.57;;;;;;;11.40;84.06;102367.09;4986329;28;20034;-61
2022/01/01 04:56:18;;;;;;;36.35;12.32;;;;;;;11.45;83.92;102370.56;4987543;28;20026;-62
2022/01/01 04:58:44;;;;;;;28.65;11.18;;;;;;;11.49;83.69;102362.59;4986707;28;20030;-60
2022/01/01 05:01:09;;;;;;;25.30;10.55;;;;;;;11.44;83.90;102359.13;4987587;28;20417;-62
2022/01/01 05:03:34;;;;;;;25.83;10.95;;;;;;;11.43;84.05;102360.03;4986031;28;20050;-61
2022/01/01 05:06:00;;;;;;;31.70;11.63;;;;;;;11.42;84.00;102365.31;4987533;28;20026;-60
2022/01/01 05:08:26;;;;;;;27.20;10.25;;;;;;;11.43;83.73;102361.78;4989958;28;20350;-60
2022/01/01 05:10:51;;;;;;;27.77;11.15;;;;;;;11.37;83.82;102361.00;5007078;28;20491;-62
2022/01/01 05:13:18;;;;;;;32.60;11.05;;;;;;;11.36;84.05;102350.44;5005347;28;20037;-61
2022/01/01 05:15:44;;;;;;;29.15;10.90;;;;;;;11.40;83.76;102351.25;5006976;28;20424;-61
2022/01/01 05:18:09;;;;;;;27.35;10.77;;;;;;;11.40;83.76;102351.25;5005438;28;20346;-61
2022/01/01 05:20:35;;;;;;;20.73;10.38;;;;;;;11.41;83.62;102360.94;4988523;28;20037;-62
2022/01/01 05:23:00;;;;;;;30.48;10.75;;;;;;;11.40;83.73;102348.63;4986541;28;20068;-61
2022/01/01 05:25:26;;;;;;;26.00;10.50;;;;;;;11.41;83.34;102339.84;4986189;28;20045;-62
2022/01/01 05:27:51;;;;;;;20.13;9.35;;;;;;;11.41;83.26;102340.69;4986007;28;20389;-60
2022/01/01 05:30:16;;;;;;;20.58;9.98;;;;;;;11.40;83.41;102348.63;4984954;28;20120;-61
2022/01/01 05:32:42;;;;;;;28.05;9.48;;;;;;;11.34;83.25;102339.91;4987859;28;20112;-60
2022/01/01 05:35:07;;;;;;;25.17;9.73;;;;;;;11.26;83.72;102339.16;4992175;28;20477;-61
2022/01/01 05:37:32;;;;;;;26.17;10.07;;;;;;;11.18;84.21;102330.44;5006921;28;20072;-60
2022/01/01 05:39:58;;;;;;;29.45;9.80;;;;;;;11.07;84.56;102320.00;4999750;28;20548;-60
2022/01/01 05:42:23;;;;;;;28.95;11.38;;;;;;;11.01;85.00;102307.78;4987282;28;20030;-60
2022/01/01 05:44:48;;;;;;;34.25;11.10;;;;;;;10.97;84.93;102306.06;4984330;28;20489;-60
2022/01/01 05:47:14;;;;;;;27.75;11.80;;;;;;;10.95;84.56;102300.81;4970256;28;20493;-60
2022/01/01 05:49:39;;;;;;;31.33;10.40;;;;;;;10.96;84.73;102309.63;4986123;28;20064;-60
2022/01/01 05:52:05;;;;;;;27.50;9.27;;;;;;;10.94;85.06;102327.22;4986120;28;20043;-61
2022/01/01 05:54:30;;;;;;;26.50;10.13;;;;;;;10.90;84.79;102325.50;4985906;28;20669;-60
2022/01/01 05:56:55;;;;;;;26.98;10.60;;;;;;;10.86;84.98;102325.53;4986063;28;20026;-60
2022/01/01 05:59:21;;;;;;;27.00;9.60;;;;;;;10.79;85.24;102318.59;4986336;28;20018;-60
2022/01/01 06:01:46;;;;;;;27.90;10.65;;;;;;;10.74;85.22;102318.63;4983744;28;20404;-59
2022/01/01 06:04:11;;;;;;;25.02;9.80;;;;;;;10.70;85.50;102321.31;4987039;28;20465;-59
2022/01/01 06:06:36;;;;;;;31.75;9.55;;;;;;;10.67;85.46;102327.50;4984983;28;20450;-60
2022/01/01 06:09:02;;;;;;;26.98;9.88;;;;;;;10.70;85.85;102331.84;4985617;28;20037;-60
2022/01/01 06:11:27;;;;;;;27.55;10.15;;;;;;;10.78;85.03;102327.41;4985500;28;20038;-60
2022/01/01 06:13:53;;;;;;;24.75;10.15;;;;;;;10.82;85.21;102336.13;4985939;28;20113;-59
2022/01/01 06:16:18;;;;;;;26.50;9.18;;;;;;;10.80;85.22;102325.59;4984294;28;20563;-61
2022/01/01 06:18:43;;;;;;;31.30;9.93;;;;;;;10.86;84.64;102338.72;4985820;28;20081;-59
2022/01/01 06:21:09;;;;;;;24.23;9.18;;;;;;;10.91;84.45;102343.94;4985589;28;20037;-60
2022/01/01 06:23:37;;;;;;;26.15;8.63;;;;;;;10.93;84.57;102341.28;5005043;28;20535;-60
2022/01/01 06:26:03;;;;;;;20.92;8.20;;;;;;;10.99;84.46;102335.97;5004878;28;20399;-59
2022/01/01 06:28:29;;;;;;;20.05;8.35;;;;;;;11.03;83.67;102345.56;4988213;28;20030;-62
2022/01/01 06:30:54;;;;;;;21.50;7.10;;;;;;;11.05;84.02;102346.41;4984546;28;20386;-59
2022/01/01 06:33:21;;;;;;;25.20;7.70;;;;;;;11.10;83.94;102339.31;4984664;28;20081;-60
2022/01/01 06:35:46;;;;;;;16.05;6.50;;;;;;;11.15;83.45;102336.63;4985009;28;20189;-59
2022/01/01 06:38:13;;;;;;;23.90;7.25;;;;;;;11.18;83.38;102352.44;4998438;28;20029;-58
2022/01/01 06:40:39;;;;;;;25.75;7.10;;;;;;;11.18;83.15;102341.88;5009388;28;20477;-60
2022/01/01 06:43:06;;;;;;;20.35;6.90;;;;;;;11.22;83.11;102342.69;4997527;28;20092;-60
2022/01/01 06:45:31;;;;;;;17.90;7.50;;;;;;;11.21;82.80;102346.25;4989052;28;20026;-59
2022/01/01 06:47:56;;;;;;;19.58;7.43;;;;;;;11.22;82.83;102342.69;4987570;28;20061;-60
2022/01/01 06:50:22;;;;;;;18.45;7.30;;;;;;;11.25;82.42;102342.66;4990118;28;20030;-60
2022/01/01 06:52:47;;;;;;;16.83;6.63;;;;;;;11.28;82.56;102337.34;4987973;28;20025;-61
2022/01/01 06:55:13;;;;;;;18.92;7.63;;;;;;;11.31;82.43;102342.59;4971217;28;20240;-61
2022/01/01 06:57:40;;;;;;;20.48;7.40;;;;;;;11.37;81.98;102336.34;4969489;28;20085;-61
2022/01/01 07:00:06;;;;;;;20.23;7.50;;;;;;;11.40;81.71;102340.72;4986974;28;20025;-60
2022/01/01 07:02:31;;;;;;;23.45;7.97;;;;;;;11.38;81.76;102346.03;4990955;28;20092;-60
2022/01/01 07:04:56;;;;;;;18.45;7.82;;;;;;;11.41;81.50;102337.19;5006573;28;20030;-60
2022/01/01 07:07:22;;;;;;;20.92;7.80;;;;;;;11.47;81.25;102347.69;4992424;28;20267;-58
2022/01/01 07:09:47;;;;;;;17.67;7.75;;;;;;;11.45;81.09;102341.53;4989193;28;20019;-62
2022/01/01 07:12:12;;;;;;;20.75;8.48;;;;;;;11.46;81.21;102346.78;4990205;28;20022;-63
2022/01/01 07:14:38;;;;;;;17.45;6.93;;;;;;;11.45;80.99;102346.81;4989520;28;20042;-62
2022/01/01 07:17:03;;;;;;;21.77;8.02;;;;;;;11.48;81.04;102354.69;4989579;28;21334;-60
2022/01/01 07:19:28;;;;;;;18.25;8.65;;;;;;;11.48;80.95;102346.78;4989914;28;20038;-61
2022/01/01 07:21:59;;;;;;;21.80;8.02;;;;;;;11.46;81.00;102332.72;4989756;28;20022;-60
2022/01/01 07:24:25;;;;;;;17.48;7.88;;;;;;;11.49;80.84;102346.75;4989974;28;20097;-61
2022/01/01 07:26:50;;;;;;;27.83;8.98;;;;;;;11.45;80.90;102350.34;4989614;28;21054;-62
2022/01/01 07:29:15;;;;;;;20.20;8.60;;;;;;;11.48;81.15;102352.94;4996565;28;20070;-60
2022/01/01 07:31:41;;;;;;;13.75;7.85;;;;;;;11.50;80.73;102347.63;4986262;28;20085;-61
2022/01/01 07:34:06;;;;;;;19.73;7.82;;;;;;;11.52;80.91;102356.38;4989216;28;20109;-61
2022/01/01 07:36:31;;;;;;;18.83;8.20;;;;;;;11.46;81.02;102349.44;4989063;28;20034;-60
2022/01/01 07:38:57;;;;;;;23.23;8.68;;;;;;;11.48;80.79;102360.84;4987554;28;20116;-61
2022/01/01 07:41:22;;;;;;;21.27;8.32;;;;;;;11.50;80.77;102353.78;4987301;28;20050;-60
2022/01/01 07:43:47;;;;;;;21.98;9.00;;;;;;;11.45;80.99;102362.66;4989028;28;20116;-60
2022/01/01 07:46:12;;;;;;;19.17;8.20;;;;;;;11.46;80.78;102361.75;4987939;28;20025;-60
2022/01/01 07:48:38;;;;;;;19.33;8.63;;;;;;;11.45;81.06;102360.91;4987076;28;20481;-62
2022/01/01 07:51:03;;;;;;;25.02;9.20;;;;;;;11.44;81.18;102364.41;4986693;28;20057;-61
2022/01/01 07:53:28;;;;;;;20.63;8.73;;;;;;;11.44;81.14;102364.41;4987737;28;20045;-60
2022/01/01 07:55:54;;;;;;;20.30;8.82;;;;;;;11.44;81.40;102358.28;4987768;28;20030;-61
2022/01/01 07:58:19;;;;;;;21.58;8.23;;;;;;;11.43;81.25;102367.06;4987884;28;20019;-60
2022/01/01 08:00:44;;;;;;;21.17;9.75;;;;;;;11.38;81.26;102362.72;4987584;28;20080;-61
2022/01/01 08:03:11;;;;;;;19.70;8.00;;;;;;;11.38;81.69;102348.69;4987531;28;20050;-61
2022/01/01 08:05:37;;;;;;;12.23;7.43;;;;;;;11.40;81.23;102356.53;4988277;28;20031;-60
2022/01/01 08:08:03;;;;;;;25.80;8.73;;;;;;;11.35;81.61;102354.00;4986999;28;20085;-61
2022/01/01 08:10:29;;;;;;;19.17;7.95;;;;;;;11.37;81.93;102354.81;4988331;28;20372;-60
2022/01/01 08:12:54;;;;;;;20.63;8.30;;;;;;;11.36;81.67;102366.28;4987159;28;20022;-63
2022/01/01 08:15:21;;;;;;;17.27;7.80;;;;;;;11.41;81.56;102360.94;4987656;28;20128;-60
2022/01/01 08:17:46;;;;;;;15.85;7.28;;;;;;;11.43;81.24;102362.66;4986774;28;20080;-60
2022/01/01 08:20:12;;;;;;;19.45;8.32;;;;;;;11.42;81.07;102368.84;4988591;28;20113;-62
2022/01/01 08:22:37;;;;;;;17.95;6.78;;;;;;;11.48;81.03;102365.25;4986646;28;20120;-61
2022/01/01 08:25:02;;;;;;;19.83;7.63;;;;;;;11.50;80.93;102364.31;4988226;28;20378;-62
2022/01/01 08:27:28;;;;;;;22.95;7.53;;;;;;;11.54;81.19;102369.56;4987432;28;20026;-60
2022/01/01 08:29:53;;;;;;;15.40;6.93;;;;;;;11.52;80.93;102369.59;4986584;28;20030;-61
2022/01/01 08:32:18;;;;;;;21.45;7.93;;;;;;;11.54;80.75;102359.91;4987415;28;20034;-61
2022/01/01 08:34:44;;;;;;;20.10;8.02;;;;;;;11.62;80.87;102371.22;4986424;28;20030;-61
2022/01/01 08:37:09;;;;;;;19.05;7.75;;;;;;;11.57;80.71;102367.78;4987403;28;20101;-60
2022/01/01 08:39:34;;;;;;;21.42;8.25;;;;;;;11.55;80.80;102360.75;4986391;28;20100;-60
2022/01/01 08:42:00;;;;;;;23.27;7.22;;;;;;;11.52;81.19;102347.59;4987482;28;20097;-61
2022/01/01 08:44:26;;;;;;;23.35;7.78;;;;;;;11.51;81.05;102341.47;4986718;28;20077;-60
2022/01/01 08:46:51;;;;;;;21.95;7.97;;;;;;;11.48;80.94;102333.56;4986978;28;20038;-60
2022/01/01 08:49:16;;;;;;;17.75;7.72;;;;;;;11.41;81.42;102331.91;4969236;28;20061;-61
2022/01/01 08:51:43;;;;;;;25.58;8.38;;;;;;;11.40;81.64;102332.78;4987798;28;20255;-60
2022/01/01 08:54:09;;;;;;;17.48;7.50;;;;;;;11.34;81.58;102345.19;4966608;28;20358;-61
2022/01/01 08:56:35;;;;;;;19.10;8.07;;;;;;;11.34;81.94;102333.75;4987599;28;20026;-60
2022/01/01 08:59:00;;;;;;;19.05;8.00;;;;;;;11.33;81.68;102330.25;4985652;28;20031;-61
2022/01/01 09:01:26;;;;;;;14.10;7.40;;;;;;;11.32;81.76;102325.00;4964964;28;20457;-61
2022/01/01 09:03:51;;;;;;;17.73;7.65;;;;;;;11.36;81.40;102335.50;4986450;28;20113;-61
2022/01/01 09:06:17;;;;;;;17.52;8.00;;;;;;;11.30;81.81;102327.66;4965431;28;20433;-60
2022/01/01 09:08:42;;;;;;;14.63;7.43;;;;;;;11.35;82.00;102330.25;4976013;28;20089;-61
2022/01/01 09:11:09;;;;;;;20.30;8.20;;;;;;;11.36;81.48;102335.50;4985229;28;20489;-61
2022/01/01 09:13:35;;;;;;;18.77;7.57;;;;;;;11.44;81.17;102331.88;4967787;28;20608;-62
2022/01/01 09:16:01;;;;;;;16.38;7.93;;;;;;;11.40;81.44;102332.78;4985089;28;20046;-60
2022/01/01 09:18:26;;;;;;;19.00;8.35;;;;;;;11.45;81.12;102328.34;4985588;28;20026;-64
2022/01/01 09:20:51;;;;;;;19.08;8.95;;;;;;;11.48;81.11;102328.31;4981468;28;20070;-67
2022/01/01 09:23:17;;;;;;;22.58;8.65;;;;;;;11.46;81.26;102320.41;4957533;28;20023;-65
2022/01/01 09:25:42;;;;;;;20.50;10.68;;;;;;;11.46;81.04;102327.44;4967724;28;20014;-65
2022/01/01 09:28:08;;;;;;;18.85;10.18;;;;;;;11.41;81.52;102316.09;4966983;28;20078;-64
2022/01/01 09:30:34;;;;;;;22.17;12.63;;;;;;;11.32;81.68;102312.66;4983687;28;20039;-59
2022/01/01 09:32:59;;;;;;;23.10;13.30;;;;;;;11.35;81.55;102296.78;4986136;28;20105;-56
2022/01/01 09:35:24;;;;;;;25.13;14.52;;;;;;;11.27;82.22;102290.75;4984899;28;20038;-66
2022/01/01 09:37:50;;;;;;;23.95;12.93;;;;;;;11.34;82.11;102288.88;4985791;28;20049;-65
2022/01/01 09:40:15;;;;;;;24.95;12.88;;;;;;;11.30;81.84;102285.44;4985403;28;20380;-62
2022/01/01 09:42:40;;;;;;;22.40;10.85;;;;;;;11.35;81.82;102286.22;4984120;28;20023;-66
2022/01/01 09:45:07;;;;;;;20.63;11.02;;;;;;;11.38;81.26;102275.63;4968830;28;20030;-66
2022/01/01 09:47:32;;;;;;;23.70;11.18;;;;;;;11.43;81.72;102287.88;4985552;28;20711;-60
2022/01/01 09:49:58;;;;;;;23.95;12.15;;;;;;;11.39;81.58;102292.34;4986463;28;20033;-65
2022/01/01 09:52:24;;;;;;;27.80;14.88;;;;;;;11.38;81.70;102286.19;4985177;28;20032;-65
2022/01/01 09:54:50;;;;;;;23.35;14.63;;;;;;;11.41;81.73;102289.69;4984207;28;20241;-64
2022/01/01 09:57:16;;;;;;;25.27;15.18;;;;;;;11.40;81.89;102293.19;4985888;28;20026;-65
2022/01/01 09:59:41;;;;;;;31.00;15.63;;;;;;;11.40;82.24;102299.38;4984346;28;20026;-64
2022/01/01 10:02:06;;;;;;;25.98;15.35;;;;;;;11.46;81.92;102290.47;4985387;28;20493;-65
2022/01/01 10:04:47;;;;;;;24.88;14.90;;;;;;;11.50;81.74;102300.13;4985323;28;20422;-65
2022/01/01 10:07:13;;;;;;;27.30;14.35;;;;;;;11.48;81.95;102307.19;4968659;28;20473;-65
2022/01/01 10:09:39;;;;;;;27.45;15.23;;;;;;;11.52;81.69;102302.72;4985802;28;20113;-68
2022/01/01 10:12:06;;;;;;;33.10;17.05;;;;;;;11.56;81.65;102299.16;4985460;28;20847;-66
2022/01/01 10:14:42;;;;;;;34.85;17.33;;;;;;;11.55;81.56;102287.72;4980021;28;20031;-66
2022/01/01 10:17:20;;;;;;;33.10;17.90;;;;;;;11.58;81.83;102292.06;4978846;28;20026;-68
2022/01/01 10:19:48;;;;;;;28.75;17.85;;;;;;;11.61;81.38;102300.84;4983651;28;20066;-66
2022/01/01 10:22:17;;;;;;;35.08;19.50;;;;;;;11.60;81.59;102291.19;4982161;28;20037;-67
2022/01/01 10:27:45;;;;;;;33.72;18.92;;;;;;;11.62;81.83;102299.94;4984793;28;20049;-66
2022/01/01 10:30:19;;;;;;;36.22;22.02;;;;;;;11.63;81.89;102304.31;4970447;28;20067;-66
2022/01/01 10:33:01;;;;;;;42.63;22.38;;;;;;;11.68;81.94;102295.47;4978723;28;20068;-66
2022/01/01 10:35:28;;;;;;;32.55;19.42;;;;;;;11.74;81.78;102304.16;5005321;28;20381;-66
2022/01/01 10:37:53;;;;;;;38.22;21.50;;;;;;;11.83;81.42;102297.00;4987260;28;20058;-65
2022/01/01 10:40:28;;;;;;;37.05;21.52;;;;;;;11.79;81.60;102295.28;4985360;28;20065;-66
2022/01/01 10:42:54;;;;;;;37.78;20.80;;;;;;;11.89;80.90;102296.88;4984956;28;20571;-67
2022/01/01 10:45:40;;;;;;;43.00;21.58;;;;;;;11.98;80.88;102301.16;4976378;28;20019;-66
2022/01/01 10:48:15;;;;;;;30.58;18.85;;;;;;;12.09;80.54;102299.25;4983641;28;20035;-67
2022/01/01 10:50:41;;;;;;;29.50;18.38;;;;;;;12.16;80.23;102283.28;4985427;28;20044;-65
2022/01/01 10:53:14;;;;;;;38.67;19.48;;;;;;;12.17;80.42;102277.09;4985141;28;20037;-66
2022/01/01 10:55:44;;;;;;;31.83;18.80;;;;;;;12.12;80.61;102278.06;4985532;28;20122;-67
2022/01/01 10:58:16;;;;;;;31.55;18.38;;;;;;;12.18;80.06;102279.72;4985080;28;20018;-66
2022/01/01 11:00:42;;;;;;;30.92;18.40;;;;;;;12.21;80.26;102286.69;4967770;28;20023;-66
2022/01/01 11:03:15;;;;;;;29.92;18.08;;;;;;;12.22;80.13;102285.81;4997979;28;20519;-66
2022/01/01 11:05:41;;;;;;;34.22;19.50;;;;;;;12.32;79.45;102276.84;5005769;28;20072;-66
2022/01/01 11:08:07;;;;;;;29.85;18.40;;;;;;;12.40;79.60;102267.88;5003500;28;20030;-66
2022/01/01 11:10:34;;;;;;;29.25;18.00;;;;;;;12.51;79.29;102273.81;5004182;28;20427;-67
2022/01/01 11:13:00;;;;;;;29.00;18.33;;;;;;;12.60;78.71;102265.72;4993976;28;20041;-67